createdAt,value
2022-09-24T00:01:19.547Z,38.67
2022-09-24T00:03:51.493Z,32.47
2022-09-24T00:06:19.243Z,30.17
2022-09-24T00:08:47.292Z,35.72
2022-09-24T00:11:14.189Z,33.55
2022-09-24T00:13:41.771Z,38.53
2022-09-24T00:16:11.824Z,35.38
2022-09-24T00:18:39.020Z,32.03
2022-09-24T00:21:32.865Z,30.35
2022-09-24T00:24:02.013Z,30.05
2022-09-24T00:29:17.272Z,26.35
2022-09-24T00:31:44.062Z,23.33
2022-09-24T00:34:11.071Z,22.40
2022-09-24T00:36:38.050Z,21.20
2022-09-24T00:39:05.294Z,18.05
2022-09-24T00:41:34.722Z,16.55
2022-09-24T00:44:01.903Z,19.58
2022-09-24T00:46:28.679Z,26.00
2022-09-24T00:49:05.362Z,22.30
2022-09-24T00:51:33.231Z,24.33
2022-09-24T00:54:01.957Z,27.77
2022-09-24T00:56:31.234Z,22.00
2022-09-24T00:59:01.636Z,34.97
2022-09-24T01:01:29.868Z,27.63
2022-09-24T01:03:57.613Z,29.50
2022-09-24T01:06:25.359Z,34.40
2022-09-24T01:08:52.921Z,30.25
2022-09-24T01:11:43.013Z,28.83
2022-09-24T01:14:34.555Z,26.20
2022-09-24T01:17:23.190Z,28.00
2022-09-24T01:20:14.235Z,36.25
2022-09-24T01:22:40.878Z,28.80
2022-09-24T01:25:28.992Z,29.67
2022-09-24T01:28:07.682Z,34.28
2022-09-24T01:30:38.335Z,29.95
2022-09-24T01:33:08.741Z,28.95
2022-09-24T01:35:38.561Z,28.50
2022-09-24T01:38:09.819Z,29.85
2022-09-24T01:40:37.447Z,26.50
2022-09-24T01:43:05.815Z,23.73
2022-09-24T01:45:33.507Z,26.52
2022-09-24T01:48:00.929Z,21.77
2022-09-24T01:50:31.367Z,20.98
2022-09-24T01:53:09.159Z,24.50
2022-09-24T01:55:39.357Z,21.15
2022-09-24T01:58:09.274Z,20.50
2022-09-24T02:00:38.396Z,25.15
2022-09-24T02:03:10.707Z,19.50
2022-09-24T02:05:58.709Z,23.60
2022-09-24T02:08:31.325Z,26.05
2022-09-24T02:11:21.823Z,26.77
2022-09-24T02:13:54.499Z,24.80
2022-09-24T02:16:28.999Z,26.73
2022-09-24T02:18:57.693Z,28.85
2022-09-24T02:21:25.022Z,26.33
2022-09-24T02:23:55.552Z,19.20
2022-09-24T02:26:22.338Z,21.65
2022-09-24T02:28:49.334Z,23.27
2022-09-24T02:31:30.360Z,22.83
2022-09-24T02:34:17.202Z,31.33
2022-09-24T02:36:43.950Z,18.55
2022-09-24T02:39:10.575Z,19.10
2022-09-24T02:41:37.254Z,17.27
2022-09-24T02:44:03.913Z,25.20
2022-09-24T02:46:30.653Z,25.30
2022-09-24T02:48:57.782Z,20.58
2022-09-24T02:51:24.517Z,22.63
2022-09-24T02:53:51.307Z,25.90
2022-09-24T02:56:18.017Z,22.83
2022-09-24T02:58:44.723Z,22.90
2022-09-24T03:01:11.456Z,20.13
2022-09-24T03:03:38.087Z,21.90
2022-09-24T03:06:05.025Z,20.05
2022-09-24T03:08:32.438Z,18.38
2022-09-24T03:11:00.253Z,17.88
2022-09-24T03:13:26.880Z,21.02
2022-09-24T03:15:53.671Z,24.65
2022-09-24T03:18:20.614Z,28.85
2022-09-24T03:21:04.721Z,30.63
2022-09-24T03:23:31.670Z,28.63
2022-09-24T03:25:59.070Z,27.25
2022-09-24T03:28:26.437Z,27.67
2022-09-24T03:31:02.277Z,27.88
2022-09-24T03:33:36.953Z,26.70
2022-09-24T03:36:24.551Z,33.63
2022-09-24T03:38:56.470Z,37.65
2022-09-24T03:41:27.512Z,32.83
2022-09-24T03:43:54.985Z,33.33
2022-09-24T03:46:22.129Z,28.75
2022-09-24T03:48:49.233Z,32.85
2022-09-24T03:51:18.935Z,32.28
2022-09-24T03:53:46.707Z,37.72
2022-09-24T03:56:13.879Z,34.25
2022-09-24T03:58:42.001Z,35.00
2022-09-24T04:01:10.819Z,34.05
2022-09-24T04:03:37.564Z,32.97
2022-09-24T04:06:05.493Z,26.98
2022-09-24T04:08:32.665Z,22.15
2022-09-24T04:10:59.432Z,27.20
2022-09-24T04:13:26.350Z,27.23
2022-09-24T04:15:53.865Z,26.42
2022-09-24T04:18:20.811Z,23.80
2022-09-24T04:20:47.590Z,35.45
2022-09-24T04:23:14.653Z,30.77
2022-09-24T04:25:41.358Z,32.00
2022-09-24T04:28:09.435Z,33.25
2022-09-24T04:30:38.373Z,38.75
2022-09-24T04:33:05.775Z,30.77
2022-09-24T04:35:36.010Z,26.95
2022-09-24T04:38:03.834Z,32.13
2022-09-24T04:40:30.821Z,30.65
2022-09-24T04:42:57.595Z,24.83
2022-09-24T04:45:25.189Z,23.17
2022-09-24T04:47:58.494Z,21.48
2022-09-24T04:50:30.673Z,18.40
2022-09-24T04:52:57.349Z,19.65
2022-09-24T04:55:24.457Z,33.95
2022-09-24T04:57:51.311Z,17.92
2022-09-24T05:00:20.505Z,20.42
2022-09-24T05:05:14.327Z,17.27
2022-09-24T05:07:41.949Z,30.77
2022-09-24T05:10:09.239Z,18.90
2022-09-24T05:12:36.493Z,21.20
2022-09-24T05:15:04.198Z,16.40
2022-09-24T05:17:31.061Z,17.35
2022-09-24T05:20:01.545Z,19.67
2022-09-24T05:22:28.241Z,19.70
2022-09-24T05:24:54.977Z,19.45
2022-09-24T05:27:23.279Z,20.77
2022-09-24T05:29:50.505Z,22.85
2022-09-24T05:32:18.959Z,18.35
2022-09-24T05:34:45.970Z,19.75
2022-09-24T05:37:14.186Z,20.55
2022-09-24T05:39:40.849Z,20.40
2022-09-24T05:42:10.514Z,21.10
2022-09-24T05:44:38.202Z,16.58
2022-09-24T05:47:04.967Z,19.58
2022-09-24T05:49:32.121Z,19.10
2022-09-24T05:51:59.153Z,22.17
2022-09-24T05:54:25.991Z,24.85
2022-09-24T05:56:52.860Z,23.65
2022-09-24T05:59:19.481Z,24.52
2022-09-24T06:01:46.274Z,22.52
2022-09-24T06:04:13.053Z,19.30
2022-09-24T06:06:39.698Z,23.05
2022-09-24T06:09:08.993Z,22.52
2022-09-24T06:11:39.971Z,28.13
2022-09-24T06:14:08.836Z,26.92
2022-09-24T06:16:35.958Z,21.98
2022-09-24T06:19:02.842Z,17.67
2022-09-24T06:21:29.721Z,19.50
2022-09-24T06:23:56.514Z,21.70
2022-09-24T06:26:23.285Z,22.58
2022-09-24T06:28:49.966Z,18.15
2022-09-24T06:31:16.848Z,17.10
2022-09-24T06:33:45.911Z,16.70
2022-09-24T06:36:12.587Z,19.20
2022-09-24T06:38:42.131Z,19.45
2022-09-24T06:41:10.246Z,19.95
2022-09-24T06:43:37.038Z,16.70
2022-09-24T06:46:03.986Z,19.65
2022-09-24T06:48:31.316Z,17.67
2022-09-24T06:50:58.261Z,17.05
2022-09-24T06:53:24.978Z,11.38
2022-09-24T06:55:51.807Z,13.02
2022-09-24T06:58:23.783Z,11.90
2022-09-24T07:00:59.002Z,11.38
2022-09-24T07:03:27.801Z,14.13
2022-09-24T07:05:54.974Z,8.90
2022-09-24T07:08:22.105Z,15.93
2022-09-24T07:10:52.643Z,10.48
2022-09-24T07:13:21.300Z,14.20
2022-09-24T07:15:49.907Z,15.93
2022-09-24T07:18:17.787Z,8.85
2022-09-24T07:20:44.647Z,9.70
2022-09-24T07:23:12.408Z,7.60
2022-09-24T07:25:39.229Z,8.52
2022-09-24T07:28:08.323Z,6.80
2022-09-24T07:30:36.098Z,9.20
2022-09-24T07:33:02.896Z,8.20
2022-09-24T07:35:29.962Z,8.90
2022-09-24T07:38:01.833Z,9.90
2022-09-24T07:40:29.357Z,6.78
2022-09-24T07:42:57.137Z,12.07
2022-09-24T07:45:27.999Z,6.75
2022-09-24T07:48:02.508Z,8.13
2022-09-24T07:50:30.861Z,7.80
2022-09-24T07:52:57.573Z,9.57
2022-09-24T07:55:25.786Z,13.75
2022-09-24T07:57:54.125Z,11.80
2022-09-24T08:00:21.983Z,12.63
2022-09-24T08:02:49.104Z,10.88
2022-09-24T08:05:18.168Z,8.48
2022-09-24T08:07:55.577Z,7.30
2022-09-24T08:10:23.371Z,9.80
2022-09-24T08:12:50.530Z,10.55
2022-09-24T08:15:17.301Z,10.82
2022-09-24T08:17:44.271Z,12.07
2022-09-24T08:20:12.284Z,11.13
2022-09-24T08:22:38.967Z,9.95
2022-09-24T08:25:06.265Z,8.52
2022-09-24T08:27:33.090Z,8.40
2022-09-24T08:30:00.731Z,10.32
2022-09-24T08:32:29.267Z,11.40
2022-09-24T08:34:56.007Z,8.55
2022-09-24T08:37:22.867Z,8.82
2022-09-24T08:39:49.518Z,8.20
2022-09-24T08:42:31.146Z,8.82
2022-09-24T08:45:16.959Z,8.40
2022-09-24T08:47:50.947Z,7.68
2022-09-24T08:50:26.850Z,10.55
2022-09-24T08:53:16.576Z,8.13
2022-09-24T08:55:47.524Z,8.40
2022-09-24T08:58:23.437Z,11.35
2022-09-24T09:00:57.826Z,6.53
2022-09-24T09:03:40.623Z,7.07
2022-09-24T09:06:34.498Z,24.38
2022-09-24T09:09:12.890Z,10.65
2022-09-24T09:11:45.067Z,8.00
2022-09-24T09:14:17.735Z,9.80
2022-09-24T09:16:56.336Z,10.20
2022-09-24T09:19:26.751Z,8.45
2022-09-24T09:21:57.615Z,8.73
2022-09-24T09:24:53.784Z,12.18
2022-09-24T09:27:21.591Z,10.02
2022-09-24T09:29:57.427Z,9.20
2022-09-24T09:32:45.657Z,7.13
2022-09-24T09:35:19.625Z,8.90
2022-09-24T09:38:17.206Z,9.15
2022-09-24T09:41:14.914Z,5.63
2022-09-24T09:43:42.007Z,8.75
2022-09-24T09:46:21.679Z,6.63
2022-09-24T09:49:00.394Z,9.65
2022-09-24T09:51:27.327Z,8.70
2022-09-24T09:53:59.171Z,8.52
2022-09-24T09:56:30.873Z,7.75
2022-09-24T09:59:09.164Z,8.38
2022-09-24T10:01:37.475Z,7.60
2022-09-24T10:04:05.170Z,6.47
2022-09-24T10:06:36.298Z,5.45
2022-09-24T10:09:08.553Z,9.63
2022-09-24T10:11:35.195Z,7.05
2022-09-24T10:14:04.063Z,58.92
2022-09-24T10:18:57.330Z,6.93
2022-09-24T10:21:35.260Z,5.80
2022-09-24T10:24:04.290Z,6.20
2022-09-24T10:26:45.125Z,7.03
2022-09-24T10:29:51.484Z,6.22
2022-09-24T10:32:20.659Z,6.80
2022-09-24T10:35:01.354Z,8.63
2022-09-24T10:37:29.042Z,6.47
2022-09-24T10:39:59.065Z,6.20
2022-09-24T10:42:29.479Z,6.95
2022-09-24T10:45:01.148Z,9.35
2022-09-24T10:47:45.934Z,8.13
2022-09-24T10:50:21.478Z,7.57
2022-09-24T10:53:41.629Z,9.77
2022-09-24T10:56:20.127Z,7.75
2022-09-24T10:58:51.666Z,5.95
2022-09-24T11:01:29.794Z,7.18
2022-09-24T11:04:38.733Z,9.52
2022-09-24T11:07:33.232Z,7.82
2022-09-24T11:10:24.149Z,8.13
2022-09-24T11:13:15.526Z,7.82
2022-09-24T11:16:15.770Z,8.68
2022-09-24T11:18:57.114Z,6.05
2022-09-24T11:21:48.825Z,6.38
2022-09-24T11:24:15.410Z,7.53
2022-09-24T11:26:57.916Z,7.82
2022-09-24T11:29:26.935Z,6.63
2022-09-24T11:32:06.955Z,7.28
2022-09-24T11:34:59.696Z,6.32
2022-09-24T11:37:26.685Z,7.43
2022-09-24T11:40:00.583Z,10.05
2022-09-24T11:42:33.167Z,9.02
2022-09-24T11:45:21.653Z,5.93
2022-09-24T11:48:14.330Z,6.13
2022-09-24T11:50:50.012Z,8.23
2022-09-24T11:53:25.687Z,8.45
2022-09-24T11:55:59.840Z,6.93
2022-09-24T11:58:33.953Z,10.65
2022-09-24T12:01:13.084Z,9.77
2022-09-24T12:04:13.834Z,9.00
2022-09-24T12:06:55.115Z,6.30
2022-09-24T12:09:27.131Z,8.10
2022-09-24T12:11:58.426Z,6.25
2022-09-24T12:14:54.521Z,7.15
2022-09-24T12:17:27.729Z,8.63
2022-09-24T12:20:24.663Z,11.00
2022-09-24T12:23:00.167Z,8.15
2022-09-24T12:25:34.518Z,13.02
2022-09-24T12:28:01.812Z,7.90
2022-09-24T12:31:01.380Z,8.07
2022-09-24T12:36:10.894Z,7.57
2022-09-24T12:38:43.882Z,10.07
2022-09-24T12:41:33.258Z,9.35
2022-09-24T12:44:06.354Z,9.07
2022-09-24T12:46:40.432Z,10.77
2022-09-24T12:49:16.332Z,11.80
2022-09-24T12:51:43.840Z,11.52
2022-09-24T12:54:31.261Z,7.60
2022-09-24T12:57:08.639Z,5.60
2022-09-24T12:59:48.941Z,7.18
2022-09-24T13:02:23.801Z,10.25
2022-09-24T13:05:02.763Z,8.77
2022-09-24T13:07:34.281Z,6.70
2022-09-24T13:10:16.287Z,9.68
2022-09-24T13:12:43.950Z,7.95
2022-09-24T13:15:39.037Z,7.18
2022-09-24T13:18:07.748Z,8.85
2022-09-24T13:20:36.216Z,7.35
2022-09-24T13:23:09.085Z,8.55
2022-09-24T13:25:35.749Z,16.25
2022-09-24T13:28:18.080Z,10.18
2022-09-24T13:30:54.268Z,8.35
2022-09-24T13:33:32.069Z,8.65
2022-09-24T13:36:18.924Z,7.68
2022-09-24T13:38:50.140Z,9.05
2022-09-24T13:41:19.764Z,7.47
2022-09-24T13:43:53.117Z,9.13
2022-09-24T13:46:20.991Z,11.35
2022-09-24T13:49:11.352Z,9.82
2022-09-24T13:51:39.323Z,6.60
2022-09-24T13:54:16.841Z,7.95
2022-09-24T13:57:14.605Z,11.70
2022-09-24T13:59:41.345Z,17.27
2022-09-24T14:02:26.243Z,12.05
2022-09-24T14:05:00.637Z,7.80
2022-09-24T14:07:28.672Z,17.45
2022-09-24T14:10:06.136Z,12.38
2022-09-24T14:12:33.355Z,9.68
2022-09-24T14:15:00.260Z,6.97
2022-09-24T14:17:27.113Z,10.07
2022-09-24T14:19:56.261Z,6.43
2022-09-24T14:22:25.766Z,10.23
2022-09-24T14:25:01.377Z,7.85
2022-09-24T14:27:28.709Z,9.55
2022-09-24T14:29:57.898Z,14.40
2022-09-24T14:32:34.815Z,8.63
2022-09-24T14:35:06.816Z,9.00
2022-09-24T14:37:36.464Z,12.32
2022-09-24T14:40:07.197Z,10.48
2022-09-24T14:42:44.165Z,9.23
2022-09-24T14:45:19.387Z,10.50
2022-09-24T14:47:46.085Z,11.43
2022-09-24T14:50:35.323Z,7.32
2022-09-24T14:53:02.502Z,7.95
2022-09-24T14:55:42.994Z,10.82
2022-09-24T14:58:31.739Z,7.22
2022-09-24T15:01:00.951Z,10.20
2022-09-24T15:03:38.410Z,11.13
2022-09-24T15:06:07.854Z,7.22
2022-09-24T15:08:34.530Z,6.32
2022-09-24T15:11:03.815Z,11.48
2022-09-24T15:13:35.497Z,10.07
2022-09-24T15:16:03.343Z,10.80
2022-09-24T15:18:30.082Z,11.55
2022-09-24T15:21:00.272Z,6.20
2022-09-24T15:23:27.055Z,7.47
2022-09-24T15:25:53.754Z,7.25
2022-09-24T15:28:22.770Z,10.88
2022-09-24T15:30:49.543Z,10.50
2022-09-24T15:33:17.614Z,8.98
2022-09-24T15:35:44.751Z,9.73
2022-09-24T15:38:19.078Z,9.30
2022-09-24T15:40:45.926Z,12.32
2022-09-24T15:43:23.786Z,12.43
2022-09-24T15:45:51.223Z,13.25
2022-09-24T15:48:18.651Z,11.32
2022-09-24T15:50:46.831Z,14.30
2022-09-24T15:53:19.702Z,15.52
2022-09-24T15:55:49.012Z,11.18
2022-09-24T15:58:19.435Z,13.35
2022-09-24T16:00:46.709Z,12.10
2022-09-24T16:03:22.894Z,17.13
2022-09-24T16:05:49.886Z,14.15
2022-09-24T16:08:16.737Z,14.38
2022-09-24T16:10:44.455Z,16.10
2022-09-24T16:13:12.163Z,21.85
2022-09-24T16:15:39.698Z,23.52
2022-09-24T16:18:07.330Z,18.20
2022-09-24T16:20:34.415Z,17.80
2022-09-24T16:23:01.045Z,21.10
2022-09-24T16:25:28.166Z,22.92
2022-09-24T16:27:57.119Z,17.73
2022-09-24T16:32:50.521Z,17.45
2022-09-24T16:35:17.733Z,15.80
2022-09-24T16:37:44.425Z,20.92
2022-09-24T16:40:12.084Z,23.42
2022-09-24T16:42:38.812Z,32.55
2022-09-24T16:45:07.153Z,17.20
2022-09-24T16:47:33.973Z,22.27
2022-09-24T16:50:00.620Z,20.23
2022-09-24T16:52:30.561Z,21.48
2022-09-24T16:54:57.725Z,19.40
2022-09-24T16:57:24.364Z,25.13
2022-09-24T16:59:51.026Z,21.42
2022-09-24T17:02:18.149Z,21.38
2022-09-24T17:04:44.934Z,25.33
2022-09-24T17:07:13.471Z,20.38
2022-09-24T17:09:58.896Z,26.55
2022-09-24T17:12:27.680Z,23.05
2022-09-24T17:14:54.912Z,30.73
2022-09-24T17:17:21.694Z,40.53
2022-09-24T17:19:48.361Z,19.90
2022-09-24T17:22:15.082Z,28.20
2022-09-24T17:24:41.802Z,20.17
2022-09-24T17:27:08.572Z,21.27
2022-09-24T17:29:35.322Z,21.98
2022-09-24T17:32:02.248Z,20.30
2022-09-24T17:34:29.063Z,22.38
2022-09-24T17:36:56.599Z,19.75
2022-09-24T17:39:23.461Z,17.25
2022-09-24T17:41:50.166Z,25.95
2022-09-24T17:44:18.013Z,17.58
2022-09-24T17:46:45.001Z,23.88
2022-09-24T17:49:12.116Z,17.58
2022-09-24T17:51:39.469Z,20.15
2022-09-24T17:54:12.163Z,19.40
2022-09-24T17:56:40.711Z,17.60
2022-09-24T17:59:09.521Z,22.65
2022-09-24T18:01:38.025Z,22.58
2022-09-24T18:04:06.866Z,34.53
2022-09-24T18:06:36.712Z,23.17
2022-09-24T18:09:03.830Z,20.25
2022-09-24T18:11:33.170Z,22.15
2022-09-24T18:14:02.316Z,18.80
2022-09-24T18:16:31.204Z,20.73
2022-09-24T18:19:02.393Z,20.30
2022-09-24T18:21:29.633Z,27.23
2022-09-24T18:23:57.927Z,26.00
2022-09-24T18:26:35.417Z,22.30
2022-09-24T18:29:10.264Z,27.75
2022-09-24T18:31:37.914Z,24.00
2022-09-24T18:34:06.988Z,20.08
2022-09-24T18:39:01.556Z,25.73
2022-09-24T18:41:29.889Z,17.48
2022-09-24T18:43:58.860Z,16.58
2022-09-24T18:46:27.324Z,16.58
2022-09-24T18:48:55.751Z,14.85
2022-09-24T18:51:24.938Z,13.15
2022-09-24T18:53:53.599Z,17.15
2022-09-24T18:56:21.006Z,19.38
2022-09-24T18:58:48.013Z,17.08
2022-09-24T19:01:15.646Z,20.17
2022-09-24T19:03:43.506Z,20.63
2022-09-24T19:06:12.923Z,21.10
2022-09-24T19:08:40.188Z,25.42
2022-09-24T19:11:10.063Z,17.10
2022-09-24T19:13:38.701Z,20.38
2022-09-24T19:16:07.299Z,18.60
2022-09-24T19:18:35.670Z,20.67
2022-09-24T19:21:06.528Z,14.10
2022-09-24T19:23:40.854Z,16.90
2022-09-24T19:26:08.898Z,16.50
2022-09-24T19:28:35.875Z,26.83
2022-09-24T19:31:02.874Z,25.83
2022-09-24T19:33:29.676Z,22.55
2022-09-24T19:36:04.715Z,17.45
2022-09-24T19:38:33.579Z,14.57
2022-09-24T19:41:25.168Z,15.23
2022-09-24T19:44:01.169Z,14.15
2022-09-24T19:46:32.541Z,14.80
2022-09-24T19:48:59.723Z,21.27
2022-09-24T19:51:28.825Z,15.68
2022-09-24T19:56:25.487Z,15.90
2022-09-24T20:01:25.178Z,16.80
2022-09-24T20:03:51.992Z,16.05
2022-09-24T20:06:20.982Z,15.38
2022-09-24T20:08:47.673Z,16.05
2022-09-24T20:11:19.436Z,14.15
2022-09-24T20:13:47.326Z,18.67
2022-09-24T20:16:19.731Z,16.92
2022-09-24T20:18:47.875Z,18.27
2022-09-24T20:21:17.882Z,18.83
2022-09-24T20:23:46.304Z,17.40
2022-09-24T20:26:32.944Z,17.73
2022-09-24T20:28:59.927Z,20.40
2022-09-24T20:31:26.739Z,15.00
2022-09-24T20:33:53.650Z,16.38
2022-09-24T20:36:24.022Z,15.18
2022-09-24T20:38:54.034Z,16.92
2022-09-24T20:43:48.962Z,21.42
2022-09-24T20:46:18.257Z,12.38
2022-09-24T20:48:45.255Z,16.20
2022-09-24T20:51:13.836Z,14.45
2022-09-24T20:53:41.809Z,13.15
2022-09-24T20:56:09.345Z,14.30
2022-09-24T20:58:40.057Z,15.27
2022-09-24T21:01:07.531Z,15.30
2022-09-24T21:03:44.801Z,11.77
2022-09-24T21:06:12.654Z,14.02
2022-09-24T21:08:41.423Z,15.13
2022-09-24T21:11:18.082Z,17.25
2022-09-24T21:13:50.024Z,16.42
2022-09-24T21:16:19.922Z,15.43
2022-09-24T21:18:47.418Z,16.02
2022-09-24T21:21:17.017Z,17.13
2022-09-24T21:23:45.096Z,16.15
2022-09-24T21:26:19.742Z,12.95
2022-09-24T21:28:47.996Z,24.65
2022-09-24T21:31:21.086Z,22.90
2022-09-24T21:33:49.241Z,26.38
2022-09-24T21:36:19.479Z,23.65
2022-09-24T21:38:55.391Z,18.13
2022-09-24T21:41:27.222Z,23.83
2022-09-24T21:43:55.609Z,13.93
2022-09-24T21:46:23.209Z,18.05
2022-09-24T21:48:51.415Z,16.20
2022-09-24T21:51:22.318Z,19.13
2022-09-24T21:53:51.096Z,15.70
2022-09-24T21:56:19.418Z,17.88
2022-09-24T21:58:50.262Z,12.88
2022-09-24T22:01:26.155Z,15.02
2022-09-24T22:03:55.706Z,16.30
2022-09-24T22:06:27.180Z,15.68
2022-09-24T22:08:58.034Z,27.13
2022-09-24T22:11:26.413Z,16.30
2022-09-24T22:14:01.220Z,16.50
2022-09-24T22:16:29.796Z,13.90
2022-09-24T22:18:56.711Z,15.55
2022-09-24T22:21:23.517Z,12.10
2022-09-24T22:23:50.252Z,14.82
2022-09-24T22:26:18.764Z,17.85
2022-09-24T22:28:45.492Z,13.35
2022-09-24T22:31:15.024Z,12.60
2022-09-24T22:34:00.760Z,14.43
2022-09-24T22:36:28.457Z,13.80
2022-09-24T22:38:59.714Z,13.82
2022-09-24T22:41:30.521Z,17.77
2022-09-24T22:43:58.118Z,13.38
2022-09-24T22:46:28.242Z,13.05
2022-09-24T22:48:56.045Z,11.60
2022-09-24T22:51:23.907Z,18.55
2022-09-24T22:53:50.629Z,16.77
2022-09-24T22:56:19.234Z,14.02
2022-09-24T22:58:51.475Z,12.63
2022-09-24T23:01:23.989Z,16.33
2022-09-24T23:03:52.134Z,12.15
2022-09-24T23:06:20.916Z,12.30
2022-09-24T23:08:48.337Z,13.70
2022-09-24T23:11:20.319Z,14.63
2022-09-24T23:13:50.946Z,17.58
2022-09-24T23:16:37.558Z,12.30
2022-09-24T23:19:07.229Z,13.65
2022-09-24T23:21:34.392Z,12.82
2022-09-24T23:24:04.191Z,12.48
2022-09-24T23:26:31.597Z,13.80
2022-09-24T23:28:59.092Z,11.90
2022-09-24T23:31:31.041Z,14.70
2022-09-24T23:33:58.917Z,12.10
2022-09-24T23:36:26.620Z,11.20
2022-09-24T23:38:53.867Z,13.65
2022-09-24T23:41:21.812Z,12.02
2022-09-24T23:43:48.834Z,17.13
2022-09-24T23:46:15.845Z,17.10
2022-09-24T23:48:42.686Z,15.20
2022-09-24T23:51:09.996Z,13.43
2022-09-24T23:53:37.175Z,12.48
2022-09-24T23:56:05.152Z,11.60
2022-09-24T23:58:32.156Z,12.75
